sensor_id;sensor_type;location;lat;lon;timestamp;temperature;humidity
16485;DHT22;8353;47.856;12.344;2023-11-21T00:00:21;11.50;99.90
16485;DHT22;8353;47.856;12.344;2023-11-21T00:03:09;11.60;99.90
16485;DHT22;8353;47.856;12.344;2023-11-21T00:05:57;11.50;99.90
16485;DHT22;8353;47.856;12.344;2023-11-21T00:08:43;11.50;99.90
16485;DHT22;8353;47.856;12.344;2023-11-21T00:11:30;11.50;99.90
16485;DHT22;8353;47.856;12.344;2023-11-21T00:14:17;11.50;99.90
16485;DHT22;8353;47.856;12.344;2023-11-21T00:17:04;11.50;99.90
16485;DHT22;8353;47.856;12.344;2023-11-21T00:19:53;11.60;99.90
16485;DHT22;8353;47.856;12.344;2023-11-21T00:22:39;11.70;99.90
16485;DHT22;8353;47.856;12.344;2023-11-21T00:25:26;11.60;99.90
16485;DHT22;8353;47.856;12.344;2023-11-21T00:28:13;11.60;99.90
16485;DHT22;8353;47.856;12.344;2023-11-21T00:31:02;11.60;99.90
16485;DHT22;8353;47.856;12.344;2023-11-21T00:33:49;11.60;99.90
16485;DHT22;8353;47.856;12.344;2023-11-21T00:36:37;11.50;99.90
16485;DHT22;8353;47.856;12.344;2023-11-21T00:39:24;11.50;99.90
16485;DHT22;8353;47.856;12.344;2023-11-21T00:42:11;11.40;99.90
16485;DHT22;8353;47.856;12.344;2023-11-21T00:44:58;11.40;99.90
16485;DHT22;8353;47.856;12.344;2023-11-21T00:47:45;11.40;99.90
16485;DHT22;8353;47.856;12.344;2023-11-21T00:50:32;11.50;99.90
16485;DHT22;8353;47.856;12.344;2023-11-21T00:53:20;11.50;99.90
16485;DHT22;8353;47.856;12.344;2023-11-21T00:56:07;11.50;99.90
16485;DHT22;8353;47.856;12.344;2023-11-21T00:58:54;11.40;99.90
16485;DHT22;8353;47.856;12.344;2023-11-21T01:01:41;11.40;99.90
16485;DHT22;8353;47.856;12.344;2023-11-21T01:04:27;11.40;99.90
16485;DHT22;8353;47.856;12.344;2023-11-21T01:07:14;11.40;99.90
16485;DHT22;8353;47.856;12.344;2023-11-21T01:10:03;11.40;99.90
16485;DHT22;8353;47.856;12.344;2023-11-21T01:12:51;11.40;99.90
16485;DHT22;8353;47.856;12.344;2023-11-21T01:15:38;11.40;99.90
16485;DHT22;8353;47.856;12.344;2023-11-21T01:18:24;11.30;99.90
16485;DHT22;8353;47.856;12.344;2023-11-21T01:21:11;11.40;99.90
16485;DHT22;8353;47.856;12.344;2023-11-21T01:23:58;11.40;99.90
16485;DHT22;8353;47.856;12.344;2023-11-21T01:26:46;11.50;99.90
16485;DHT22;8353;47.856;12.344;2023-11-21T01:29:33;11.40;99.90
16485;DHT22;8353;47.856;12.344;2023-11-21T01:32:21;11.50;99.90
16485;DHT22;8353;47.856;12.344;2023-11-21T01:35:08;11.60;99.90
16485;DHT22;8353;47.856;12.344;2023-11-21T01:37:55;11.60;99.90
16485;DHT22;8353;47.856;12.344;2023-11-21T01:40:42;11.70;99.90
16485;DHT22;8353;47.856;12.344;2023-11-21T01:43:30;11.70;99.90
16485;DHT22;8353;47.856;12.344;2023-11-21T01:46:17;11.70;99.90
16485;DHT22;8353;47.856;12.344;2023-11-21T01:49:12;11.70;99.90
16485;DHT22;8353;47.856;12.344;2023-11-21T01:52:00;11.70;99.90
16485;DHT22;8353;47.856;12.344;2023-11-21T01:54:48;11.70;99.90
16485;DHT22;8353;47.856;12.344;2023-11-21T01:57:35;11.50;99.90
16485;DHT22;8353;47.856;12.344;2023-11-21T02:00:25;11.40;99.90
16485;DHT22;8353;47.856;12.344;2023-11-21T02:03:13;11.40;99.90
16485;DHT22;8353;47.856;12.344;2023-11-21T02:06:00;11.40;99.90
16485;DHT22;8353;47.856;12.344;2023-11-21T02:08:47;11.40;99.90
16485;DHT22;8353;47.856;12.344;2023-11-21T02:11:34;11.30;99.90
16485;DHT22;8353;47.856;12.344;2023-11-21T02:14:21;11.40;99.90
16485;DHT22;8353;47.856;12.344;2023-11-21T02:17:09;11.30;99.90
16485;DHT22;8353;47.856;12.344;2023-11-21T02:19:57;11.30;99.90
16485;DHT22;8353;47.856;12.344;2023-11-21T02:22:50;11.20;99.90
16485;DHT22;8353;47.856;12.344;2023-11-21T02:25:37;11.00;99.90
16485;DHT22;8353;47.856;12.344;2023-11-21T02:28:24;10.80;99.90
16485;DHT22;8353;47.856;12.344;2023-11-21T02:31:12;10.80;99.90
16485;DHT22;8353;47.856;12.344;2023-11-21T02:33:58;10.80;99.90
16485;DHT22;8353;47.856;12.344;2023-11-21T02:36:45;10.80;99.90
16485;DHT22;8353;47.856;12.344;2023-11-21T02:39:34;10.80;99.90
16485;DHT22;8353;47.856;12.344;2023-11-21T02:42:21;11.00;99.90
16485;DHT22;8353;47.856;12.344;2023-11-21T02:45:08;11.10;99.90
16485;DHT22;8353;47.856;12.344;2023-11-21T02:47:58;11.00;99.90
16485;DHT22;8353;47.856;12.344;2023-11-21T02:50:44;10.90;99.90
16485;DHT22;8353;47.856;12.344;2023-11-21T02:53:31;10.80;99.90
16485;DHT22;8353;47.856;12.344;2023-11-21T02:56:19;10.80;99.90
16485;DHT22;8353;47.856;12.344;2023-11-21T02:59:06;10.90;99.90
16485;DHT22;8353;47.856;12.344;2023-11-21T03:01:53;10.90;99.90
16485;DHT22;8353;47.856;12.344;2023-11-21T03:04:40;10.90;99.90
16485;DHT22;8353;47.856;12.344;2023-11-21T03:07:28;11.00;99.90
16485;DHT22;8353;47.856;12.344;2023-11-21T03:10:14;11.00;99.90
16485;DHT22;8353;47.856;12.344;2023-11-21T03:13:02;11.00;99.90
16485;DHT22;8353;47.856;12.344;2023-11-21T03:15:50;10.80;99.90
16485;DHT22;8353;47.856;12.344;2023-11-21T03:18:36;10.80;99.90
16485;DHT22;8353;47.856;12.344;2023-11-21T03:21:23;10.90;99.90
16485;DHT22;8353;47.856;12.344;2023-11-21T03:24:10;10.80;99.90
16485;DHT22;8353;47.856;12.344;2023-11-21T03:26:57;10.80;99.90
16485;DHT22;8353;47.856;12.344;2023-11-21T03:29:45;10.80;99.90
16485;DHT22;8353;47.856;12.344;2023-11-21T03:32:33;10.80;99.90
16485;DHT22;8353;47.856;12.344;2023-11-21T03:35:21;10.70;99.90
16485;DHT22;8353;47.856;12.344;2023-11-21T03:38:07;10.70;99.90
16485;DHT22;8353;47.856;12.344;2023-11-21T03:40:56;10.70;99.90
16485;DHT22;8353;47.856;12.344;2023-11-21T03:43:43;10.60;99.90
16485;DHT22;8353;47.856;12.344;2023-11-21T03:46:31;10.60;99.90
16485;DHT22;8353;47.856;12.344;2023-11-21T03:49:17;10.50;99.90
16485;DHT22;8353;47.856;12.344;2023-11-21T03:52:05;10.50;99.90
16485;DHT22;8353;47.856;12.344;2023-11-21T03:54:53;10.60;99.90
16485;DHT22;8353;47.856;12.344;2023-11-21T03:57:40;10.60;99.90
16485;DHT22;8353;47.856;12.344;2023-11-21T04:00:27;10.60;99.90
16485;DHT22;8353;47.856;12.344;2023-11-21T04:03:15;10.50;99.90
16485;DHT22;8353;47.856;12.344;2023-11-21T04:06:02;10.40;99.90
16485;DHT22;8353;47.856;12.344;2023-11-21T04:08:51;10.40;99.90
16485;DHT22;8353;47.856;12.344;2023-11-21T04:11:38;10.40;99.90
16485;DHT22;8353;47.856;12.344;2023-11-21T04:14:25;10.40;99.90
16485;DHT22;8353;47.856;12.344;2023-11-21T04:17:12;10.50;99.90
16485;DHT22;8353;47.856;12.344;2023-11-21T04:20:00;10.60;99.90
16485;DHT22;8353;47.856;12.344;2023-11-21T04:22:47;10.50;99.90
16485;DHT22;8353;47.856;12.344;2023-11-21T04:25:34;10.40;99.90
16485;DHT22;8353;47.856;12.344;2023-11-21T04:28:21;10.30;99.90
16485;DHT22;8353;47.856;12.344;2023-11-21T04:31:07;10.30;99.90
16485;DHT22;8353;47.856;12.344;2023-11-21T04:33:54;10.30;99.90
16485;DHT22;8353;47.856;12.344;2023-11-21T04:36:42;10.20;99.90
16485;DHT22;8353;47.856;12.344;2023-11-21T04:39:29;10.20;99.90
16485;DHT22;8353;47.856;12.344;2023-11-21T04:42:17;10.20;99.90
16485;DHT22;8353;47.856;12.344;2023-11-21T04:45:04;10.10;99.90
16485;DHT22;8353;47.856;12.344;2023-11-21T04:47:54;10.00;99.90
16485;DHT22;8353;47.856;12.344;2023-11-21T04:50:41;10.10;99.90
16485;DHT22;8353;47.856;12.344;2023-11-21T04:53:29;10.10;99.90
16485;DHT22;8353;47.856;12.344;2023-11-21T04:56:16;10.10;99.90
16485;DHT22;8353;47.856;12.344;2023-11-21T04:59:03;10.30;99.90
16485;DHT22;8353;47.856;12.344;2023-11-21T05:01:50;10.30;99.90
16485;DHT22;8353;47.856;12.344;2023-11-21T05:04:36;10.30;99.90
16485;DHT22;8353;47.856;12.344;2023-11-21T05:07:23;10.40;99.90
16485;DHT22;8353;47.856;12.344;2023-11-21T05:10:15;10.40;99.90
16485;DHT22;8353;47.856;12.344;2023-11-21T05:13:02;10.50;99.90
16485;DHT22;8353;47.856;12.344;2023-11-21T05:15:49;10.50;99.90
16485;DHT22;8353;47.856;12.344;2023-11-21T05:18:36;10.50;99.90
16485;DHT22;8353;47.856;12.344;2023-11-21T05:21:23;10.50;99.90
16485;DHT22;8353;47.856;12.344;2023-11-21T05:24:10;10.40;99.90
16485;DHT22;8353;47.856;12.344;2023-11-21T05:26:58;10.40;99.90
16485;DHT22;8353;47.856;12.344;2023-11-21T05:29:45;10.40;99.90
16485;DHT22;8353;47.856;12.344;2023-11-21T05:32:32;10.40;99.90
16485;DHT22;8353;47.856;12.344;2023-11-21T05:35:19;10.40;99.90
16485;DHT22;8353;47.856;12.344;2023-11-21T05:38:07;10.40;99.90
16485;DHT22;8353;47.856;12.344;2023-11-21T05:40:53;10.40;99.90
16485;DHT22;8353;47.856;12.344;2023-11-21T05:43:41;10.50;99.90
16485;DHT22;8353;47.856;12.344;2023-11-21T05:46:28;10.40;99.90
16485;DHT22;8353;47.856;12.344;2023-11-21T05:49:15;10.40;99.90
16485;DHT22;8353;47.856;12.344;2023-11-21T05:52:02;10.30;99.90
16485;DHT22;8353;47.856;12.344;2023-11-21T05:54:53;10.20;99.90
16485;DHT22;8353;47.856;12.344;2023-11-21T05:57:41;10.30;99.90
16485;DHT22;8353;47.856;12.344;2023-11-21T06:00:30;10.20;99.90
16485;DHT22;8353;47.856;12.344;2023-11-21T06:03:17;10.20;99.90
16485;DHT22;8353;47.856;12.344;2023-11-21T06:06:04;10.20;99.90
16485;DHT22;8353;47.856;12.344;2023-11-21T06:08:52;10.20;99.90
16485;DHT22;8353;47.856;12.344;2023-11-21T06:11:39;10.20;99.90
16485;DHT22;8353;47.856;12.344;2023-11-21T06:14:25;10.20;99.90
16485;DHT22;8353;47.856;12.344;2023-11-21T06:17:13;10.20;99.90
16485;DHT22;8353;47.856;12.344;2023-11-21T06:20:00;10.20;99.90
16485;DHT22;8353;47.856;12.344;2023-11-21T06:22:50;10.10;99.90
16485;DHT22;8353;47.856;12.344;2023-11-21T06:25:36;10.10;99.90
16485;DHT22;8353;47.856;12.344;2023-11-21T06:28:23;10.00;99.90
16485;DHT22;8353;47.856;12.344;2023-11-21T06:31:10;10.00;99.90
16485;DHT22;8353;47.856;12.344;2023-11-21T06:33:59;10.10;99.90
16485;DHT22;8353;47.856;12.344;2023-11-21T06:36:46;10.00;99.90
16485;DHT22;8353;47.856;12.344;2023-11-21T06:39:33;10.00;99.90
16485;DHT22;8353;47.856;12.344;2023-11-21T06:42:19;10.10;99.90
16485;DHT22;8353;47.856;12.344;2023-11-21T06:45:07;10.10;99.90
16485;DHT22;8353;47.856;12.344;2023-11-21T06:47:56;10.10;99.90
16485;DHT22;8353;47.856;12.344;2023-11-21T06:50:44;10.20;99.90
16485;DHT22;8353;47.856;12.344;2023-11-21T06:53:32;10.30;99.90
16485;DHT22;8353;47.856;12.344;2023-11-21T06:56:18;10.40;99.90
16485;DHT22;8353;47.856;12.344;2023-11-21T06:59:05;10.30;99.90
16485;DHT22;8353;47.856;12.344;2023-11-21T07:01:52;10.30;99.90
16485;DHT22;8353;47.856;12.344;2023-11-21T07:04:39;10.30;99.90
16485;DHT22;8353;47.856;12.344;2023-11-21T07:07:28;10.40;99.90
16485;DHT22;8353;47.856;12.344;2023-11-21T07:10:15;10.30;99.90
16485;DHT22;8353;47.856;12.344;2023-11-21T07:13:02;10.40;99.90
16485;DHT22;8353;47.856;12.344;2023-11-21T07:15:49;10.40;99.90
16485;DHT22;8353;47.856;12.344;2023-11-21T07:18:36;10.40;99.90
16485;DHT22;8353;47.856;12.344;2023-11-21T07:21:23;10.40;99.90
16485;DHT22;8353;47.856;12.344;2023-11-21T07:24:11;10.30;99.90
16485;DHT22;8353;47.856;12.344;2023-11-21T07:26:58;10.30;99.90
16485;DHT22;8353;47.856;12.344;2023-11-21T07:29:45;10.20;99.90
16485;DHT22;8353;47.856;12.344;2023-11-21T07:32:32;10.10;99.90
16485;DHT22;8353;47.856;12.344;2023-11-21T07:35:19;10.10;99.90
16485;DHT22;8353;47.856;12.344;2023-11-21T07:38:06;10.30;99.90
16485;DHT22;8353;47.856;12.344;2023-11-21T07:40:54;10.30;99.90
16485;DHT22;8353;47.856;12.344;2023-11-21T07:43:41;10.30;99.90
16485;DHT22;8353;47.856;12.344;2023-11-21T07:46:28;10.30;99.90
16485;DHT22;8353;47.856;12.344;2023-11-21T07:49:15;10.20;99.90
16485;DHT22;8353;47.856;12.344;2023-11-21T07:52:05;10.20;99.90
16485;DHT22;8353;47.856;12.344;2023-11-21T07:54:52;10.20;99.90
16485;DHT22;8353;47.856;12.344;2023-11-21T07:57:40;10.10;99.90
16485;DHT22;8353;47.856;12.344;2023-11-21T08:00:27;10.20;99.90
16485;DHT22;8353;47.856;12.344;2023-11-21T08:03:16;10.10;99.90
16485;DHT22;8353;47.856;12.344;2023-11-21T08:06:03;10.20;99.90
16485;DHT22;8353;47.856;12.344;2023-11-21T08:08:51;10.20;99.90
16485;DHT22;8353;47.856;12.344;2023-11-21T08:11:38;10.20;99.90
16485;DHT22;8353;47.856;12.344;2023-11-21T08:14:26;10.30;99.90
16485;DHT22;8353;47.856;12.344;2023-11-21T08:17:12;10.40;99.90
16485;DHT22;8353;47.856;12.344;2023-11-21T08:19:59;10.40;99.90
16485;DHT22;8353;47.856;12.344;2023-11-21T08:22:47;10.40;99.90
16485;DHT22;8353;47.856;12.344;2023-11-21T08:25:34;10.40;99.90
16485;DHT22;8353;47.856;12.344;2023-11-21T08:28:21;10.30;99.90
16485;DHT22;8353;47.856;12.344;2023-11-21T08:31:10;10.40;99.90
16485;DHT22;8353;47.856;12.344;2023-11-21T08:33:57;10.40;99.90
16485;DHT22;8353;47.856;12.344;2023-11-21T08:36:44;10.40;99.90
16485;DHT22;8353;47.856;12.344;2023-11-21T08:39:31;10.40;99.90
16485;DHT22;8353;47.856;12.344;2023-11-21T08:42:17;10.40;99.90
16485;DHT22;8353;47.856;12.344;2023-11-21T08:45:05;10.50;99.90
16485;DHT22;8353;47.856;12.344;2023-11-21T08:47:55;10.50;99.90
16485;DHT22;8353;47.856;12.344;2023-11-21T08:50:42;10.60;99.90
16485;DHT22;8353;47.856;12.344;2023-11-21T08:53:29;10.70;99.90
16485;DHT22;8353;47.856;12.344;2023-11-21T08:56:16;10.80;99.90
16485;DHT22;8353;47.856;12.344;2023-11-21T08:59:04;10.70;99.90
16485;DHT22;8353;47.856;12.344;2023-11-21T09:01:50;10.60;99.90
16485;DHT22;8353;47.856;12.344;2023-11-21T09:04:39;10.60;99.90
16485;DHT22;8353;47.856;12.344;2023-11-21T09:07:25;10.70;99.90
16485;DHT22;8353;47.856;12.344;2023-11-21T09:10:13;10.70;99.90
16485;DHT22;8353;47.856;12.344;2023-11-21T09:13:00;10.80;99.90
16485;DHT22;8353;47.856;12.344;2023-11-21T09:15:47;10.70;99.90
16485;DHT22;8353;47.856;12.344;2023-11-21T09:18:35;10.70;99.90
16485;DHT22;8353;47.856;12.344;2023-11-21T09:21:23;10.80;99.90
16485;DHT22;8353;47.856;12.344;2023-11-21T09:24:11;10.70;99.90
16485;DHT22;8353;47.856;12.344;2023-11-21T09:26:57;10.60;99.90
16485;DHT22;8353;47.856;12.344;2023-11-21T09:29:45;10.70;99.90
16485;DHT22;8353;47.856;12.344;2023-11-21T09:32:33;10.60;99.90
16485;DHT22;8353;47.856;12.344;2023-11-21T09:35:20;10.60;99.90
16485;DHT22;8353;47.856;12.344;2023-11-21T09:38:08;10.50;99.90
16485;DHT22;8353;47.856;12.344;2023-11-21T09:40:56;10.60;99.90
16485;DHT22;8353;47.856;12.344;2023-11-21T09:43:45;10.70;99.90
16485;DHT22;8353;47.856;12.344;2023-11-21T09:46:33;10.60;99.90
16485;DHT22;8353;47.856;12.344;2023-11-21T09:49:23;10.50;99.90
16485;DHT22;8353;47.856;12.344;2023-11-21T09:52:17;10.40;99.90
16485;DHT22;8353;47.856;12.344;2023-11-21T09:55:07;10.50;99.90
16485;DHT22;8353;47.856;12.344;2023-11-21T09:57:56;10.70;99.90
16485;DHT22;8353;47.856;12.344;2023-11-21T10:00:45;10.80;99.90
16485;DHT22;8353;47.856;12.344;2023-11-21T10:03:32;10.70;99.90
16485;DHT22;8353;47.856;12.344;2023-11-21T10:06:22;10.60;99.90
16485;DHT22;8353;47.856;12.344;2023-11-21T10:09:11;10.60;99.90
16485;DHT22;8353;47.856;12.344;2023-11-21T10:12:00;10.60;99.90
16485;DHT22;8353;47.856;12.344;2023-11-21T10:14:49;10.60;99.90
16485;DHT22;8353;47.856;12.344;2023-11-21T10:17:38;10.50;99.90
16485;DHT22;8353;47.856;12.344;2023-11-21T10:20:28;10.60;99.90
16485;DHT22;8353;47.856;12.344;2023-11-21T10:23:15;10.60;99.90
16485;DHT22;8353;47.856;12.344;2023-11-21T10:26:02;10.60;99.90
16485;DHT22;8353;47.856;12.344;2023-11-21T10:28:59;10.70;99.90
16485;DHT22;8353;47.856;12.344;2023-11-21T10:31:49;10.80;99.90
16485;DHT22;8353;47.856;12.344;2023-11-21T10:34:36;10.80;99.90
16485;DHT22;8353;47.856;12.344;2023-11-21T10:37:23;10.80;99.90
16485;DHT22;8353;47.856;12.344;2023-11-21T10:40:11;10.80;99.90
16485;DHT22;8353;47.856;12.344;2023-11-21T10:43:06;10.80;99.90
16485;DHT22;8353;47.856;12.344;2023-11-21T10:45:57;10.70;99.90
16485;DHT22;8353;47.856;12.344;2023-11-21T10:48:45;10.70;99.90
16485;DHT22;8353;47.856;12.344;2023-11-21T10:51:32;10.80;99.90
16485;DHT22;8353;47.856;12.344;2023-11-21T10:54:19;10.80;99.90
16485;DHT22;8353;47.856;12.344;2023-11-21T10:57:07;10.80;99.90
16485;DHT22;8353;47.856;12.344;2023-11-21T10:59:54;10.80;99.90
16485;DHT22;8353;47.856;12.344;2023-11-21T11:02:43;10.90;99.90
16485;DHT22;8353;47.856;12.344;2023-11-21T11:05:30;10.80;99.90
16485;DHT22;8353;47.856;12.344;2023-11-21T11:08:19;10.80;99.90
16485;DHT22;8353;47.856;12.344;2023-11-21T11:11:11;10.90;99.90
16485;DHT22;8353;47.856;12.344;2023-11-21T11:13:59;10.90;99.90
16485;DHT22;8353;47.856;12.344;2023-11-21T11:16:46;10.80;99.90
16485;DHT22;8353;47.856;12.344;2023-11-21T11:19:36;10.70;99.90
16485;DHT22;8353;47.856;12.344;2023-11-21T11:22:32;10.60;99.90
16485;DHT22;8353;47.856;12.344;2023-11-21T11:25:40;10.70;99.90
16485;DHT22;8353;47.856;12.344;2023-11-21T11:28:38;10.80;99.90
16485;DHT22;8353;47.856;12.344;2023-11-21T11:31:38;10.90;99.90
16485;DHT22;8353;47.856;12.344;2023-11-21T11:34:30;11.20;99.90
16485;DHT22;8353;47.856;12.344;2023-11-21T11:37:19;11.10;99.90
16485;DHT22;8353;47.856;12.344;2023-11-21T11:40:10;11.10;99.90
16485;DHT22;8353;47.856;12.344;2023-11-21T11:42:58;11.10;99.90
16485;DHT22;8353;47.856;12.344;2023-11-21T11:45:48;11.20;99.90
16485;DHT22;8353;47.856;12.344;2023-11-21T11:48:38;11.20;99.90
16485;DHT22;8353;47.856;12.344;2023-11-21T11:51:25;11.10;99.90
16485;DHT22;8353;47.856;12.344;2023-11-21T11:54:13;11.20;99.90
16485;DHT22;8353;47.856;12.344;2023-11-21T11:57:03;11.30;99.90
16485;DHT22;8353;47.856;12.344;2023-11-21T12:00:13;11.40;99.90
16485;DHT22;8353;47.856;12.344;2023-11-21T12:03:06;11.40;99.90
16485;DHT22;8353;47.856;12.344;2023-11-21T12:05:53;11.50;99.90
16485;DHT22;8353;47.856;12.344;2023-11-21T12:08:43;11.40;99.90
16485;DHT22;8353;47.856;12.344;2023-11-21T12:11:32;11.60;99.90
16485;DHT22;8353;47.856;12.344;2023-11-21T12:14:21;11.70;99.90
16485;DHT22;8353;47.856;12.344;2023-11-21T12:17:08;11.60;99.90
16485;DHT22;8353;47.856;12.344;2023-11-21T12:20:02;11.50;99.90
16485;DHT22;8353;47.856;12.344;2023-11-21T12:22:50;11.70;99.90
16485;DHT22;8353;47.856;12.344;2023-11-21T12:25:37;11.80;99.90
16485;DHT22;8353;47.856;12.344;2023-11-21T12:28:27;11.80;99.90
16485;DHT22;8353;47.856;12.344;2023-11-21T12:31:14;11.80;99.90
16485;DHT22;8353;47.856;12.344;2023-11-21T12:34:01;11.70;99.90
16485;DHT22;8353;47.856;12.344;2023-11-21T12:36:48;11.70;99.90
16485;DHT22;8353;47.856;12.344;2023-11-21T12:39:35;11.60;99.90
16485;DHT22;8353;47.856;12.344;2023-11-21T12:42:21;11.60;99.90
16485;DHT22;8353;47.856;12.344;2023-11-21T12:45:20;11.60;99.90
16485;DHT22;8353;47.856;12.344;2023-11-21T12:48:07;11.40;99.90
16485;DHT22;8353;47.856;12.344;2023-11-21T12:50:56;11.50;99.90
16485;DHT22;8353;47.856;12.344;2023-11-21T12:53:45;11.30;99.90
16485;DHT22;8353;47.856;12.344;2023-11-21T12:56:38;11.30;99.90
16485;DHT22;8353;47.856;12.344;2023-11-21T12:59:25;11.30;99.90
16485;DHT22;8353;47.856;12.344;2023-11-21T13:02:14;11.30;99.90
16485;DHT22;8353;47.856;12.344;2023-11-21T13:05:01;11.30;99.90
16485;DHT22;8353;47.856;12.344;2023-11-21T13:07:52;11.20;99.90
16485;DHT22;8353;47.856;12.344;2023-11-21T13:10:41;11.30;99.90
16485;DHT22;8353;47.856;12.344;2023-11-21T13:13:29;11.30;99.90
16485;DHT22;8353;47.856;12.344;2023-11-21T13:16:17;11.30;99.90
16485;DHT22;8353;47.856;12.344;2023-11-21T13:19:07;11.40;99.90
16485;DHT22;8353;47.856;12.344;2023-11-21T13:21:54;11.40;99.90
16485;DHT22;8353;47.856;12.344;2023-11-21T13:24:41;11.50;99.90
16485;DHT22;8353;47.856;12.344;2023-11-21T13:27:27;11.50;99.90
16485;DHT22;8353;47.856;12.344;2023-11-21T13:30:16;11.40;99.90
16485;DHT22;8353;47.856;12.344;2023-11-21T13:33:04;11.50;99.90
16485;DHT22;8353;47.856;12.344;2023-11-21T13:35:54;11.60;99.90
16485;DHT22;8353;47.856;12.344;2023-11-21T13:38:42;11.60;99.90
16485;DHT22;8353;47.856;12.344;2023-11-21T13:41:29;11.60;99.90
16485;DHT22;8353;47.856;12.344;2023-11-21T13:44:16;11.70;99.90
16485;DHT22;8353;47.856;12.344;2023-11-21T13:47:12;11.70;99.90
16485;DHT22;8353;47.856;12.344;2023-11-21T13:49:58;11.70;99.90
16485;DHT22;8353;47.856;12.344;2023-11-21T13:52:47;11.70;99.90
16485;DHT22;8353;47.856;12.344;2023-11-21T13:55:34;11.70;99.90
16485;DHT22;8353;47.856;12.344;2023-11-21T13:58:21;11.60;99.90
16485;DHT22;8353;47.856;12.344;2023-11-21T14:01:12;11.60;99.90
16485;DHT22;8353;47.856;12.344;2023-11-21T14:04:17;11.60;99.90
16485;DHT22;8353;47.856;12.344;2023-11-21T14:07:16;11.50;99.90
16485;DHT22;8353;47.856;12.344;2023-11-21T14:10:13;11.40;99.90
16485;DHT22;8353;47.856;12.344;2023-11-21T14:13:01;11.40;99.90
16485;DHT22;8353;47.856;12.344;2023-11-21T14:15:48;11.40;99.90
16485;DHT22;8353;47.856;12.344;2023-11-21T14:18:37;11.40;99.90
16485;DHT22;8353;47.856;12.344;2023-11-21T14:21:36;11.50;99.90
16485;DHT22;8353;47.856;12.344;2023-11-21T14:24:22;11.50;99.90
16485;DHT22;8353;47.856;12.344;2023-11-21T14:27:12;11.50;99.90
16485;DHT22;8353;47.856;12.344;2023-11-21T14:30:00;11.50;99.90
16485;DHT22;8353;47.856;12.344;2023-11-21T14:32:47;11.40;99.90
16485;DHT22;8353;47.856;12.344;2023-11-21T14:35:34;11.50;99.90
16485;DHT22;8353;47.856;12.344;2023-11-21T14:38:20;11.60;99.90
16485;DHT22;8353;47.856;12.344;2023-11-21T14:41:08;11.60;99.90
16485;DHT22;8353;47.856;12.344;2023-11-21T14:43:57;11.70;99.90
16485;DHT22;8353;47.856;12.344;2023-11-21T14:46:45;11.60;99.90
16485;DHT22;8353;47.856;12.344;2023-11-21T14:49:34;11.70;99.90
16485;DHT22;8353;47.856;12.344;2023-11-21T14:52:36;11.60;99.90
16485;DHT22;8353;47.856;12.344;2023-11-21T14:55:30;11.50;99.90
16485;DHT22;8353;47.856;12.344;2023-11-21T14:58:24;11.60;99.90
16485;DHT22;8353;47.856;12.344;2023-11-21T15:01:13;11.30;99.90
16485;DHT22;8353;47.856;12.344;2023-11-21T15:04:09;11.20;99.90
16485;DHT22;8353;47.856;12.344;2023-11-21T15:07:06;11.10;99.90
16485;DHT22;8353;47.856;12.344;2023-11-21T15:09:52;11.10;99.90
16485;DHT22;8353;47.856;12.344;2023-11-21T15:12:39;11.00;99.90
16485;DHT22;8353;47.856;12.344;2023-11-21T15:15:26;11.00;99.90
16485;DHT22;8353;47.856;12.344;2023-11-21T15:18:17;10.90;99.90
16485;DHT22;8353;47.856;12.344;2023-11-21T15:21:04;10.90;99.90
16485;DHT22;8353;47.856;12.344;2023-11-21T15:23:51;10.80;99.90
16485;DHT22;8353;47.856;12.344;2023-11-21T15:26:37;10.80;99.90
16485;DHT22;8353;47.856;12.344;2023-11-21T15:29:25;10.80;99.90
16485;DHT22;8353;47.856;12.344;2023-11-21T15:32:12;10.80;99.90
16485;DHT22;8353;47.856;12.344;2023-11-21T15:35:00;10.70;99.90
16485;DHT22;8353;47.856;12.344;2023-11-21T15:37:47;10.50;99.90
16485;DHT22;8353;47.856;12.344;2023-11-21T15:40:34;10.40;99.90
16485;DHT22;8353;47.856;12.344;2023-11-21T15:43:21;10.30;99.90
16485;DHT22;8353;47.856;12.344;2023-11-21T15:46:07;10.20;99.90
16485;DHT22;8353;47.856;12.344;2023-11-21T15:48:55;10.10;99.90
16485;DHT22;8353;47.856;12.344;2023-11-21T15:51:44;10.00;99.90
16485;DHT22;8353;47.856;12.344;2023-11-21T15:54:32;10.20;99.90
16485;DHT22;8353;47.856;12.344;2023-11-21T15:57:20;10.30;99.90
16485;DHT22;8353;47.856;12.344;2023-11-21T16:00:08;10.30;99.90
16485;DHT22;8353;47.856;12.344;2023-11-21T16:03:01;10.20;99.90
16485;DHT22;8353;47.856;12.344;2023-11-21T16:05:49;10.30;99.90
16485;DHT22;8353;47.856;12.344;2023-11-21T16:08:37;10.30;99.90
16485;DHT22;8353;47.856;12.344;2023-11-21T16:11:25;10.30;99.90
16485;DHT22;8353;47.856;12.344;2023-11-21T16:14:12;10.30;99.90
16485;DHT22;8353;47.856;12.344;2023-11-21T16:16:58;10.20;99.90
16485;DHT22;8353;47.856;12.344;2023-11-21T16:19:45;10.10;99.90
16485;DHT22;8353;47.856;12.344;2023-11-21T16:22:33;10.20;99.90
16485;DHT22;8353;47.856;12.344;2023-11-21T16:25:21;10.30;99.90
16485;DHT22;8353;47.856;12.344;2023-11-21T16:28:08;10.30;99.90
16485;DHT22;8353;47.856;12.344;2023-11-21T16:30:55;10.30;99.90
16485;DHT22;8353;47.856;12.344;2023-11-21T16:33:42;10.20;99.90
16485;DHT22;8353;47.856;12.344;2023-11-21T16:36:30;10.30;99.90
16485;DHT22;8353;47.856;12.344;2023-11-21T16:39:17;10.30;99.90
16485;DHT22;8353;47.856;12.344;2023-11-21T16:42:06;10.30;99.90
16485;DHT22;8353;47.856;12.344;2023-11-21T16:44:53;10.20;99.90
16485;DHT22;8353;47.856;12.344;2023-11-21T16:47:42;10.10;99.90
16485;DHT22;8353;47.856;12.344;2023-11-21T16:50:29;10.10;99.90
16485;DHT22;8353;47.856;12.344;2023-11-21T16:53:16;10.10;99.90
16485;DHT22;8353;47.856;12.344;2023-11-21T16:56:02;10.00;99.90
16485;DHT22;8353;47.856;12.344;2023-11-21T16:58:50;10.10;99.90
16485;DHT22;8353;47.856;12.344;2023-11-21T17:01:37;10.20;99.90
16485;DHT22;8353;47.856;12.344;2023-11-21T17:04:24;10.30;99.90
16485;DHT22;8353;47.856;12.344;2023-11-21T17:07:11;10.20;99.90
16485;DHT22;8353;47.856;12.344;2023-11-21T17:09:58;10.20;99.90
16485;DHT22;8353;47.856;12.344;2023-11-21T17:12:45;10.20;99.90
16485;DHT22;8353;47.856;12.344;2023-11-21T17:15:33;10.00;99.90
16485;DHT22;8353;47.856;12.344;2023-11-21T17:18:20;9.90;99.90
16485;DHT22;8353;47.856;12.344;2023-11-21T17:21:07;9.90;99.90
16485;DHT22;8353;47.856;12.344;2023-11-21T17:23:55;9.90;99.90
16485;DHT22;8353;47.856;12.344;2023-11-21T17:26:42;9.90;99.90
16485;DHT22;8353;47.856;12.344;2023-11-21T17:29:29;9.90;99.90
16485;DHT22;8353;47.856;12.344;2023-11-21T17:32:18;9.80;99.90
16485;DHT22;8353;47.856;12.344;2023-11-21T17:35:05;9.80;99.90
16485;DHT22;8353;47.856;12.344;2023-11-21T17:37:52;9.80;99.90
16485;DHT22;8353;47.856;12.344;2023-11-21T17:40:39;9.80;99.90
16485;DHT22;8353;47.856;12.344;2023-11-21T17:43:26;9.70;99.90